createdAt,value
2022-08-08T00:02:03.936Z,102024.97
2022-08-08T00:04:59.723Z,102016.41
2022-08-08T00:07:56.538Z,102011.13
2022-08-08T00:10:52.377Z,102012.97
2022-08-08T00:14:16.562Z,102016.00
2022-08-08T00:16:43.787Z,102007.06
2022-08-08T00:19:55.219Z,102014.28
2022-08-08T00:22:34.266Z,102017.25
2022-08-08T00:25:16.192Z,102010.53
2022-08-08T00:27:43.744Z,102016.66
2022-08-08T00:30:15.835Z,102008.09
2022-08-08T00:32:53.273Z,102011.47
2022-08-08T00:35:21.385Z,102013.69
2022-08-08T00:38:07.230Z,102009.09
2022-08-08T00:41:09.554Z,102007.78
2022-08-08T00:43:58.713Z,102006.38
2022-08-08T00:46:57.199Z,102014.84
2022-08-08T00:50:02.927Z,102010.88
2022-08-08T00:52:54.145Z,102011.22
2022-08-08T00:55:53.874Z,102016.13
2022-08-08T00:58:32.844Z,102016.72
2022-08-08T01:01:10.531Z,102016.81
2022-08-08T01:03:59.071Z,102016.97
2022-08-08T01:07:23.797Z,102017.34
2022-08-08T01:10:18.401Z,102018.00
2022-08-08T01:13:04.805Z,102011.13
2022-08-08T01:15:54.159Z,102007.00
2022-08-08T01:18:57.784Z,102005.94
2022-08-08T01:22:09.894Z,102005.56
2022-08-08T01:24:50.809Z,102004.31
2022-08-08T01:28:02.038Z,102009.91
2022-08-08T01:30:53.499Z,102007.22
2022-08-08T01:33:54.101Z,102014.91
2022-08-08T01:36:56.077Z,102016.16
2022-08-08T01:39:43.314Z,102014.69
2022-08-08T01:42:36.769Z,102012.09
2022-08-08T01:45:10.033Z,102010.97
2022-08-08T01:48:27.574Z,102021.91
2022-08-08T01:52:29.471Z,102010.56
2022-08-08T01:55:45.006Z,102014.72
2022-08-08T01:58:11.126Z,102019.13
2022-08-08T02:00:57.603Z,102018.22
2022-08-08T02:03:56.248Z,102015.53
2022-08-08T02:07:04.178Z,102014.28
2022-08-08T02:10:29.542Z,102010.06
2022-08-08T02:13:53.684Z,102017.63
2022-08-08T02:16:37.907Z,102012.63
2022-08-08T02:19:57.624Z,102017.41
2022-08-08T02:22:54.854Z,102017.16
2022-08-08T02:25:43.553Z,102011.28
2022-08-08T02:28:43.418Z,102016.78
2022-08-08T02:31:59.308Z,102023.25
2022-08-08T02:34:09.826Z,102021.31
2022-08-08T02:36:54.576Z,102029.91
2022-08-08T02:39:58.420Z,102025.09
2022-08-08T02:42:47.985Z,102031.91
2022-08-08T02:45:57.819Z,102028.31
2022-08-08T02:48:50.366Z,102023.75
2022-08-08T02:51:30.433Z,102026.47
2022-08-08T02:54:31.239Z,102029.16
2022-08-08T02:57:21.569Z,102034.47
2022-08-08T03:00:31.044Z,102031.41
2022-08-08T03:05:00.630Z,102033.28
2022-08-08T03:06:35.054Z,102025.41
2022-08-08T03:09:33.294Z,102034.03
2022-08-08T03:12:36.619Z,102031.75
2022-08-08T03:15:57.287Z,102025.13
2022-08-08T03:18:45.384Z,102031.19
2022-08-08T03:21:14.605Z,102033.47
2022-08-08T03:23:57.436Z,102022.00
2022-08-08T03:26:42.536Z,102038.47
2022-08-08T03:29:21.036Z,102032.31
2022-08-08T03:32:29.261Z,102045.84
2022-08-08T03:34:58.748Z,102038.53
2022-08-08T03:38:53.933Z,102038.72
2022-08-08T03:40:30.438Z,102036.28
2022-08-08T03:43:17.995Z,102039.13
2022-08-08T03:46:06.680Z,102037.84
2022-08-08T03:49:56.759Z,102038.34
2022-08-08T03:51:47.104Z,102042.19
2022-08-08T03:54:40.793Z,102046.31
2022-08-08T03:58:09.609Z,102049.06
2022-08-08T04:00:11.583Z,102047.13
2022-08-08T04:02:55.287Z,102046.44
2022-08-08T04:05:28.307Z,102048.50
2022-08-08T04:08:01.857Z,102048.38
2022-08-08T04:10:32.611Z,102051.53
2022-08-08T04:13:17.134Z,102051.56
2022-08-08T04:15:54.747Z,102055.88
2022-08-08T04:18:41.795Z,102058.91
2022-08-08T04:21:10.728Z,102056.34
2022-08-08T04:24:05.690Z,102057.59
2022-08-08T04:26:27.363Z,102056.56
2022-08-08T04:29:06.821Z,102055.34
2022-08-08T04:31:58.970Z,102056.84
2022-08-08T04:34:22.930Z,102056.28
2022-08-08T04:36:55.331Z,102054.09
2022-08-08T04:40:04.127Z,102057.00
2022-08-08T04:42:11.305Z,102055.13
2022-08-08T04:44:42.978Z,102054.38
2022-08-08T04:47:16.582Z,102058.22
2022-08-08T04:50:01.638Z,102060.69
2022-08-08T04:52:35.060Z,102052.28
2022-08-08T04:55:05.876Z,102056.00
2022-08-08T04:57:34.355Z,102053.22
2022-08-08T05:00:04.439Z,102053.72
2022-08-08T05:02:31.910Z,102054.28
2022-08-08T05:04:59.991Z,102053.50
2022-08-08T05:07:35.300Z,102058.94
2022-08-08T05:10:06.871Z,102058.84
2022-08-08T05:13:00.363Z,102056.41
2022-08-08T05:15:25.927Z,102064.94
2022-08-08T05:17:58.305Z,102062.56
2022-08-08T05:20:25.642Z,102061.75
2022-08-08T05:22:54.551Z,102059.91
2022-08-08T05:25:27.796Z,102064.38
2022-08-08T05:28:08.784Z,102062.38
2022-08-08T05:30:38.525Z,102065.44
2022-08-08T05:33:14.116Z,102066.75
2022-08-08T05:35:43.966Z,102074.94
2022-08-08T05:38:31.911Z,102072.78
2022-08-08T05:41:07.888Z,102067.44
2022-08-08T05:44:03.734Z,102072.63
2022-08-08T05:46:27.716Z,102073.75
2022-08-08T05:48:55.119Z,102070.31
2022-08-08T05:51:26.487Z,102072.66
2022-08-08T05:54:26.840Z,102075.78
2022-08-08T05:56:47.654Z,102075.28
2022-08-08T05:59:59.819Z,102082.63
2022-08-08T06:02:43.543Z,102088.03
2022-08-08T06:05:33.577Z,102085.22
2022-08-08T06:08:09.876Z,102096.06
2022-08-08T06:10:48.940Z,102088.28
2022-08-08T06:13:22.550Z,102090.75
2022-08-08T06:15:55.387Z,102089.69
2022-08-08T06:18:41.304Z,102086.91
2022-08-08T06:21:11.706Z,102089.91
2022-08-08T06:24:03.611Z,102087.69
2022-08-08T06:26:45.410Z,102088.44
2022-08-08T06:30:00.536Z,102089.06
2022-08-08T06:32:31.178Z,102098.50
2022-08-08T06:36:00.424Z,102096.19
2022-08-08T06:38:00.155Z,102099.84
2022-08-08T06:40:36.994Z,102096.44
2022-08-08T06:43:10.942Z,102101.03
2022-08-08T06:45:48.319Z,102109.47
2022-08-08T06:48:17.314Z,102117.00
2022-08-08T06:50:45.475Z,102110.94
2022-08-08T06:53:20.239Z,102111.31
2022-08-08T06:56:01.927Z,102109.41
2022-08-08T06:58:33.283Z,102107.31
2022-08-08T07:01:24.593Z,102117.66
2022-08-08T07:04:37.162Z,102120.63
2022-08-08T07:06:54.654Z,102114.72
2022-08-08T07:09:41.727Z,102120.66
2022-08-08T07:12:22.063Z,102115.09
2022-08-08T07:14:57.869Z,102111.63
2022-08-08T07:17:40.309Z,102112.25
2022-08-08T07:20:19.035Z,102116.94
2022-08-08T07:22:56.548Z,102114.69
2022-08-08T07:25:31.825Z,102111.56
2022-08-08T07:28:08.410Z,102113.34
2022-08-08T07:30:39.116Z,102106.84
2022-08-08T07:33:11.757Z,102107.13
2022-08-08T07:35:47.375Z,102110.06
2022-08-08T07:38:21.072Z,102110.94
2022-08-08T07:40:59.123Z,102121.69
2022-08-08T07:43:38.019Z,102116.28
2022-08-08T07:46:24.413Z,102119.41
2022-08-08T07:49:00.192Z,102116.00
2022-08-08T07:51:44.827Z,102112.22
2022-08-08T07:54:41.249Z,102117.28
2022-08-08T07:57:37.101Z,102126.88
2022-08-08T08:00:16.772Z,102124.09
2022-08-08T08:03:13.840Z,102121.66
2022-08-08T08:05:53.872Z,102121.28
2022-08-08T08:08:52.181Z,102123.38
2022-08-08T08:11:33.998Z,102125.63
2022-08-08T08:14:17.233Z,102133.34
2022-08-08T08:16:48.691Z,102132.88
2022-08-08T08:19:19.960Z,102129.53
2022-08-08T08:21:58.354Z,102130.47
2022-08-08T08:24:35.284Z,102123.72
2022-08-08T08:27:03.645Z,102126.53
2022-08-08T08:29:32.895Z,102128.53
2022-08-08T08:32:05.476Z,102130.50
2022-08-08T08:34:34.361Z,102127.56
2022-08-08T08:37:08.134Z,102126.50
2022-08-08T08:39:59.763Z,102131.34
2022-08-08T08:42:35.118Z,102136.78
2022-08-08T08:45:22.916Z,102134.44
2022-08-08T08:47:58.408Z,102131.88
2022-08-08T08:50:35.045Z,102135.94
2022-08-08T08:53:54.664Z,102125.13
2022-08-08T08:56:02.213Z,102128.22
2022-08-08T08:58:43.316Z,102127.81
2022-08-08T09:01:21.157Z,102135.94
2022-08-08T09:03:55.559Z,102140.31
2022-08-08T09:06:33.476Z,102149.41
2022-08-08T09:09:26.727Z,102137.81
2022-08-08T09:12:09.680Z,102151.13
2022-08-08T09:14:42.787Z,102152.63
2022-08-08T09:17:18.429Z,102153.47
2022-08-08T09:21:58.408Z,102154.56
2022-08-08T09:22:36.033Z,102150.03
2022-08-08T09:25:06.189Z,102150.59
2022-08-08T09:27:41.984Z,102152.38
2022-08-08T09:30:26.740Z,102152.09
2022-08-08T09:33:13.227Z,102154.44
2022-08-08T09:35:49.036Z,102158.81
2022-08-08T09:38:52.688Z,102157.44
2022-08-08T09:42:14.077Z,102158.88
2022-08-08T09:44:50.853Z,102151.72
2022-08-08T09:48:02.598Z,102155.63
2022-08-08T09:50:14.021Z,102154.06
2022-08-08T09:53:00.329Z,102150.84
2022-08-08T09:55:31.726Z,102155.47
2022-08-08T09:58:27.622Z,102153.66
2022-08-08T10:01:14.920Z,102156.69
2022-08-08T10:03:57.512Z,102149.22
2022-08-08T10:06:30.077Z,102159.00
2022-08-08T10:08:59.845Z,102151.84
2022-08-08T10:12:27.633Z,102152.91
2022-08-08T10:14:28.159Z,102156.69
2022-08-08T10:17:56.558Z,102162.13
2022-08-08T10:20:01.262Z,102152.19
2022-08-08T10:22:35.981Z,102151.00
2022-08-08T10:25:05.908Z,102153.47
2022-08-08T10:27:43.477Z,102147.03
2022-08-08T10:30:16.794Z,102152.91
2022-08-08T10:33:00.806Z,102152.53
2022-08-08T10:36:19.724Z,102147.63
2022-08-08T10:38:18.928Z,102144.44
2022-08-08T10:40:51.553Z,102152.34
2022-08-08T10:43:20.028Z,102152.72
2022-08-08T10:45:56.251Z,102156.09
2022-08-08T10:48:56.951Z,102151.13
2022-08-08T10:51:24.161Z,102146.84
2022-08-08T10:53:57.138Z,102147.94
2022-08-08T10:56:32.324Z,102142.38
2022-08-08T10:59:02.179Z,102148.19
2022-08-08T11:01:33.574Z,102147.78
2022-08-08T11:04:02.663Z,102148.28
2022-08-08T11:06:36.945Z,102147.13
2022-08-08T11:09:19.369Z,102146.16
2022-08-08T11:12:04.570Z,102149.06
2022-08-08T11:14:35.396Z,102136.53
2022-08-08T11:17:03.858Z,102144.69
2022-08-08T11:19:34.817Z,102141.19
2022-08-08T11:22:04.089Z,102146.22
2022-08-08T11:24:35.590Z,102141.41
2022-08-08T11:27:10.319Z,102136.00
2022-08-08T11:29:51.328Z,102132.09
2022-08-08T11:32:29.474Z,102138.88
2022-08-08T11:35:23.335Z,102129.41
2022-08-08T11:38:34.214Z,102127.50
2022-08-08T11:40:39.387Z,102135.66
2022-08-08T11:43:08.234Z,102133.66
2022-08-08T11:46:06.961Z,102128.38
2022-08-08T11:48:31.061Z,102130.75
2022-08-08T11:51:00.705Z,102128.75
2022-08-08T11:53:55.152Z,102132.47
2022-08-08T11:56:34.398Z,102132.22
2022-08-08T11:59:12.062Z,102134.66
2022-08-08T12:01:39.296Z,102132.53
2022-08-08T12:04:09.153Z,102138.25
2022-08-08T12:06:39.283Z,102136.06
2022-08-08T12:09:08.959Z,102131.50
2022-08-08T12:11:41.794Z,102142.31
2022-08-08T12:14:11.799Z,102137.94
2022-08-08T12:16:49.260Z,102131.97
2022-08-08T12:19:16.201Z,102132.69
2022-08-08T12:21:59.414Z,102128.38
2022-08-08T12:24:43.206Z,102125.38
2022-08-08T12:27:19.251Z,102125.41
2022-08-08T12:29:59.000Z,102131.63
2022-08-08T12:32:26.002Z,102137.44
2022-08-08T12:35:04.114Z,102139.22
2022-08-08T12:38:00.951Z,102133.72
2022-08-08T12:40:57.197Z,102121.16
2022-08-08T12:43:32.559Z,102128.13
2022-08-08T12:46:03.492Z,102124.56
2022-08-08T12:48:37.513Z,102119.06
2022-08-08T12:54:26.803Z,102114.25
2022-08-08T12:56:54.123Z,102114.63
2022-08-08T12:59:36.197Z,102113.53
2022-08-08T13:02:23.425Z,102106.31
2022-08-08T13:04:57.900Z,102107.19
2022-08-08T13:08:03.540Z,102113.63
2022-08-08T13:10:36.571Z,102108.47
2022-08-08T13:13:35.383Z,102119.19
2022-08-08T13:16:37.638Z,102117.75
2022-08-08T13:19:12.297Z,102107.16
2022-08-08T13:21:53.686Z,102102.72
2022-08-08T13:24:40.865Z,102106.72
2022-08-08T13:27:14.908Z,102112.53
2022-08-08T13:29:51.453Z,102115.47
2022-08-08T13:32:28.592Z,102105.22
2022-08-08T13:34:59.290Z,102121.69
2022-08-08T13:37:52.146Z,102113.72
2022-08-08T13:40:17.669Z,102125.16
2022-08-08T13:42:54.255Z,102122.91
2022-08-08T13:45:24.325Z,102134.47
2022-08-08T13:48:03.089Z,102127.50
2022-08-08T13:50:48.032Z,102130.00
2022-08-08T13:54:00.768Z,102130.53
2022-08-08T13:56:41.663Z,102129.28
2022-08-08T13:59:32.922Z,102130.03
2022-08-08T14:02:05.355Z,102130.56
2022-08-08T14:04:35.288Z,102131.34
2022-08-08T14:07:04.532Z,102123.34
2022-08-08T14:10:05.547Z,102134.63
2022-08-08T14:12:30.380Z,102132.16
2022-08-08T14:14:57.705Z,102129.19
2022-08-08T14:17:57.989Z,102133.91
2022-08-08T14:20:14.691Z,102132.16
2022-08-08T14:22:43.144Z,102129.38
2022-08-08T14:25:15.467Z,102142.88
2022-08-08T14:27:59.524Z,102137.78
2022-08-08T14:30:34.378Z,102139.53
2022-08-08T14:33:01.474Z,102129.28
2022-08-08T14:35:35.871Z,102134.69
2022-08-08T14:38:09.481Z,102138.28
2022-08-08T14:40:53.676Z,102143.19
2022-08-08T14:44:02.837Z,102142.28
2022-08-08T14:46:30.990Z,102147.47
2022-08-08T14:49:20.092Z,102141.16
2022-08-08T14:51:53.485Z,102134.91
2022-08-08T14:54:28.426Z,102142.56
2022-08-08T14:56:56.235Z,102138.28
2022-08-08T14:59:44.329Z,102132.44
2022-08-08T15:02:10.462Z,102137.06
2022-08-08T15:04:42.268Z,102127.97
2022-08-08T15:07:22.718Z,102128.56
2022-08-08T15:09:52.036Z,102126.91
2022-08-08T15:12:27.377Z,102125.03
2022-08-08T15:15:01.551Z,102123.53
2022-08-08T15:17:33.822Z,102124.16
2022-08-08T15:20:04.500Z,102129.84
2022-08-08T15:22:31.687Z,102127.66
2022-08-08T15:24:58.333Z,102125.28
2022-08-08T15:28:03.549Z,102123.06
2022-08-08T15:30:14.611Z,102129.13
2022-08-08T15:32:43.121Z,102122.88
2022-08-08T15:35:10.999Z,102122.06
2022-08-08T15:37:39.128Z,102127.66
2022-08-08T15:40:11.090Z,102117.22
2022-08-08T15:42:44.602Z,102127.56
2022-08-08T15:45:14.271Z,102119.53
2022-08-08T15:47:41.128Z,102120.97
2022-08-08T15:50:47.657Z,102121.41
2022-08-08T15:53:17.807Z,102121.16
2022-08-08T15:55:44.890Z,102122.47
2022-08-08T15:58:13.900Z,102119.34
2022-08-08T16:00:40.906Z,102119.06
2022-08-08T16:03:17.324Z,102122.56
2022-08-08T16:05:53.307Z,102120.22
2022-08-08T16:08:28.228Z,102117.63
2022-08-08T16:13:02.147Z,102124.97
2022-08-08T16:13:45.096Z,102127.72
2022-08-08T16:16:17.397Z,102121.53
2022-08-08T16:18:56.996Z,102122.13
2022-08-08T16:21:30.760Z,102121.41
2022-08-08T16:24:02.733Z,102115.00
2022-08-08T16:26:34.017Z,102113.16
2022-08-08T16:29:09.439Z,102115.56
2022-08-08T16:31:44.720Z,102117.50
2022-08-08T16:34:21.032Z,102110.47
2022-08-08T16:36:51.540Z,102100.22
2022-08-08T16:39:59.438Z,102109.19
2022-08-08T16:42:07.758Z,102112.38
2022-08-08T16:44:47.394Z,102117.84
2022-08-08T16:47:40.608Z,102115.56
2022-08-08T16:50:15.897Z,102123.81
2022-08-08T17:00:26.607Z,102124.03
2022-08-08T17:02:53.929Z,102121.34
2022-08-08T17:05:20.644Z,102123.00
2022-08-08T17:07:51.293Z,102130.06
2022-08-08T17:10:19.063Z,102127.06
2022-08-08T17:12:52.755Z,102137.22
2022-08-08T17:15:22.992Z,102133.34
2022-08-08T17:18:01.493Z,102137.81
2022-08-08T17:20:32.121Z,102142.94
2022-08-08T17:23:16.693Z,102143.25
2022-08-08T17:25:52.269Z,102144.47
2022-08-08T17:28:19.395Z,102146.84
2022-08-08T17:31:01.237Z,102146.59
2022-08-08T17:34:36.933Z,102148.38
2022-08-08T17:36:29.258Z,102151.59
2022-08-08T17:39:05.322Z,102147.09
2022-08-08T17:41:48.482Z,102152.88
2022-08-08T17:44:16.856Z,102150.75
2022-08-08T17:46:47.819Z,102155.78
2022-08-08T17:49:24.772Z,102150.72
2022-08-08T17:51:53.025Z,102154.53
2022-08-08T17:54:22.192Z,102152.22
2022-08-08T17:56:49.529Z,102155.66
2022-08-08T17:59:23.489Z,102157.34
2022-08-08T18:02:00.162Z,102157.72
2022-08-08T18:04:32.719Z,102162.22
2022-08-08T18:07:01.372Z,102152.53
2022-08-08T18:09:31.511Z,102164.88
2022-08-08T18:12:11.362Z,102167.25
2022-08-08T18:14:40.676Z,102164.25
2022-08-08T18:17:17.645Z,102170.13
2022-08-08T18:20:43.628Z,102175.69
2022-08-08T18:22:51.359Z,102167.88
2022-08-08T18:25:18.226Z,102174.19
2022-08-08T18:27:45.891Z,102172.34
2022-08-08T18:30:13.493Z,102184.00
2022-08-08T18:32:42.181Z,102179.41
2022-08-08T18:35:15.898Z,102181.72
2022-08-08T18:37:48.584Z,102178.78
2022-08-08T18:40:15.775Z,102188.16
2022-08-08T18:42:45.667Z,102189.66
2022-08-08T18:45:45.085Z,102195.50
2022-08-08T18:48:07.804Z,102199.47
2022-08-08T18:50:39.431Z,102195.00
2022-08-08T18:53:06.678Z,102198.94
2022-08-08T18:55:34.096Z,102197.56
2022-08-08T18:58:01.875Z,102196.91
2022-08-08T19:00:28.937Z,102199.25
2022-08-08T19:03:04.108Z,102196.72
2022-08-08T19:05:37.962Z,102203.19
2022-08-08T19:08:25.090Z,102205.44
2022-08-08T19:11:01.718Z,102211.38
2022-08-08T19:13:53.561Z,102212.38
2022-08-08T19:16:18.504Z,102213.94
2022-08-08T19:18:48.571Z,102215.28
2022-08-08T19:21:29.417Z,102218.56
2022-08-08T19:23:58.234Z,102228.44
2022-08-08T19:26:29.720Z,102229.47
2022-08-08T19:28:59.040Z,102232.41
2022-08-08T19:31:31.750Z,102240.72
2022-08-08T19:34:30.333Z,102234.38
2022-08-08T19:36:55.285Z,102244.31
2022-08-08T19:39:25.200Z,102240.91
2022-08-08T19:41:52.067Z,102246.44
2022-08-08T19:44:42.538Z,102242.84
2022-08-08T19:47:06.533Z,102239.66
2022-08-08T19:49:37.628Z,102235.19
2022-08-08T19:52:06.505Z,102244.44
2022-08-08T19:54:33.886Z,102235.91
2022-08-08T19:57:04.276Z,102240.66
2022-08-08T19:59:35.678Z,102234.72
2022-08-08T20:02:04.186Z,102246.44
2022-08-08T20:04:33.149Z,102250.63
2022-08-08T20:08:26.687Z,102244.81
2022-08-08T20:09:55.741Z,102251.94
2022-08-08T20:12:32.634Z,102253.81
2022-08-08T20:15:14.715Z,102253.59
2022-08-08T20:17:45.798Z,102251.97
2022-08-08T20:20:16.023Z,102247.78
2022-08-08T20:22:46.777Z,102261.72
2022-08-08T20:25:20.296Z,102260.16
2022-08-08T20:27:50.225Z,102266.00
2022-08-08T20:30:53.775Z,102276.81
2022-08-08T20:33:20.039Z,102287.69
2022-08-08T20:35:57.965Z,102284.59
2022-08-08T20:38:32.144Z,102282.88
2022-08-08T20:40:59.343Z,102283.44
2022-08-08T20:43:43.888Z,102274.41
2022-08-08T20:46:12.833Z,102280.13
2022-08-08T20:48:39.463Z,102286.03
2022-08-08T20:51:08.793Z,102291.19
2022-08-08T20:53:59.232Z,102279.66
2022-08-08T20:56:34.669Z,102279.63
2022-08-08T20:59:06.063Z,102284.00
2022-08-08T21:01:44.307Z,102288.22
2022-08-08T21:04:20.721Z,102284.22
2022-08-08T21:06:53.328Z,102294.59
2022-08-08T21:09:21.540Z,102285.00
2022-08-08T21:11:50.875Z,102286.50
2022-08-08T21:14:30.419Z,102289.06
2022-08-08T21:17:00.775Z,102283.63
2022-08-08T21:19:44.394Z,102280.06
2022-08-08T21:22:16.105Z,102280.19
2022-08-08T21:24:52.474Z,102278.00
2022-08-08T21:28:05.427Z,102277.28
2022-08-08T21:30:18.610Z,102283.28
2022-08-08T21:32:51.924Z,102277.41
2022-08-08T21:36:14.585Z,102281.81
2022-08-08T21:38:16.152Z,102288.59
2022-08-08T21:40:55.947Z,102286.34
2022-08-08T21:43:34.361Z,102290.06
2022-08-08T21:48:05.751Z,102283.44
2022-08-08T21:48:53.236Z,102287.34
2022-08-08T21:54:17.368Z,102286.00
2022-08-08T21:54:33.839Z,102286.63
2022-08-08T21:56:56.586Z,102287.56
2022-08-08T21:59:23.309Z,102291.91
2022-08-08T22:01:52.270Z,102289.06
2022-08-08T22:04:24.748Z,102290.44
2022-08-08T22:06:52.827Z,102292.38
2022-08-08T22:09:19.986Z,102294.50
2022-08-08T22:12:04.551Z,102300.56
2022-08-08T22:14:36.615Z,102309.31
2022-08-08T22:17:04.048Z,102300.56
2022-08-08T22:20:11.174Z,102308.16
2022-08-08T22:22:17.954Z,102309.88
2022-08-08T22:24:48.149Z,102315.25
2022-08-08T22:27:15.127Z,102319.16
2022-08-08T22:29:59.151Z,102319.09
2022-08-08T22:32:29.364Z,102316.00
2022-08-08T22:34:56.359Z,102309.44
2022-08-08T22:37:49.340Z,102318.38
2022-08-08T22:40:12.037Z,102320.34
2022-08-08T22:42:47.264Z,102315.72
2022-08-08T22:45:15.400Z,102319.75
2022-08-08T22:47:46.965Z,102317.41
2022-08-08T22:50:27.240Z,102320.91
2022-08-08T22:54:31.460Z,102327.63
2022-08-08T22:56:01.574Z,102319.31
2022-08-08T22:58:31.200Z,102326.31
2022-08-08T23:01:00.661Z,102323.53
2022-08-08T23:03:53.879Z,102320.72
2022-08-08T23:06:17.394Z,102316.06
2022-08-08T23:08:55.484Z,102317.94
2022-08-08T23:11:30.823Z,102321.34
2022-08-08T23:14:16.086Z,102326.38
2022-08-08T23:16:44.222Z,102316.47
2022-08-08T23:19:15.547Z,102327.56
2022-08-08T23:21:42.851Z,102324.34
2022-08-08T23:24:12.702Z,102328.75
2022-08-08T23:26:55.345Z,102332.06
2022-08-08T23:29:25.435Z,102328.75
2022-08-08T23:31:52.938Z,102330.25
2022-08-08T23:34:20.673Z,102324.72
2022-08-08T23:36:48.557Z,102334.81
2022-08-08T23:39:15.593Z,102330.06
2022-08-08T23:41:49.313Z,102336.53
2022-08-08T23:44:17.366Z,102336.81
2022-08-08T23:49:01.451Z,102340.97
2022-08-08T23:49:33.765Z,102344.84
2022-08-08T23:52:04.691Z,102340.41
2022-08-08T23:54:42.201Z,102339.38
2022-08-08T23:57:27.578Z,102338.22
